sensor_id;sensor_type;location;lat;lon;timestamp;temperature;humidity
3334;DHT22;1679;50.392;8.008;2024-02-15T00:01:54;10.10;99.90
3334;DHT22;1679;50.392;8.008;2024-02-15T00:04:19;10.00;99.90
3334;DHT22;1679;50.392;8.008;2024-02-15T00:06:45;10.00;99.90
3334;DHT22;1679;50.392;8.008;2024-02-15T00:09:11;10.00;99.90
3334;DHT22;1679;50.392;8.008;2024-02-15T00:11:36;9.90;99.90
3334;DHT22;1679;50.392;8.008;2024-02-15T00:14:02;9.90;99.90
3334;DHT22;1679;50.392;8.008;2024-02-15T00:16:27;9.90;99.90
3334;DHT22;1679;50.392;8.008;2024-02-15T00:18:53;10.00;99.90
3334;DHT22;1679;50.392;8.008;2024-02-15T00:21:21;10.00;99.90
3334;DHT22;1679;50.392;8.008;2024-02-15T00:23:48;10.00;99.90
3334;DHT22;1679;50.392;8.008;2024-02-15T00:26:14;10.00;99.90
3334;DHT22;1679;50.392;8.008;2024-02-15T00:28:41;10.00;99.90
3334;DHT22;1679;50.392;8.008;2024-02-15T00:31:07;10.10;99.90
3334;DHT22;1679;50.392;8.008;2024-02-15T00:33:33;10.00;99.90
3334;DHT22;1679;50.392;8.008;2024-02-15T00:35:59;10.00;99.90
3334;DHT22;1679;50.392;8.008;2024-02-15T00:38:24;10.00;99.90
3334;DHT22;1679;50.392;8.008;2024-02-15T00:40:50;10.00;99.90
3334;DHT22;1679;50.392;8.008;2024-02-15T00:43:15;10.00;99.90
3334;DHT22;1679;50.392;8.008;2024-02-15T00:45:41;10.00;99.90
3334;DHT22;1679;50.392;8.008;2024-02-15T00:48:07;10.00;99.90
3334;DHT22;1679;50.392;8.008;2024-02-15T00:50:33;10.00;99.90
3334;DHT22;1679;50.392;8.008;2024-02-15T00:52:58;10.00;99.90
3334;DHT22;1679;50.392;8.008;2024-02-15T00:55:24;10.00;99.90
3334;DHT22;1679;50.392;8.008;2024-02-15T00:57:49;10.00;99.90
3334;DHT22;1679;50.392;8.008;2024-02-15T01:00:15;10.00;99.90
3334;DHT22;1679;50.392;8.008;2024-02-15T01:02:41;10.00;99.90
3334;DHT22;1679;50.392;8.008;2024-02-15T01:05:06;9.90;99.90
3334;DHT22;1679;50.392;8.008;2024-02-15T01:07:32;9.90;99.90
3334;DHT22;1679;50.392;8.008;2024-02-15T01:09:58;9.90;99.90
3334;DHT22;1679;50.392;8.008;2024-02-15T01:12:24;9.90;99.90
3334;DHT22;1679;50.392;8.008;2024-02-15T01:14:49;10.00;99.90
3334;DHT22;1679;50.392;8.008;2024-02-15T01:17:15;10.00;99.90
3334;DHT22;1679;50.392;8.008;2024-02-15T01:19:41;10.00;99.90
3334;DHT22;1679;50.392;8.008;2024-02-15T01:22:06;10.00;99.90
3334;DHT22;1679;50.392;8.008;2024-02-15T01:24:32;10.00;99.90
3334;DHT22;1679;50.392;8.008;2024-02-15T01:26:58;10.00;99.90
3334;DHT22;1679;50.392;8.008;2024-02-15T01:29:23;10.00;99.90
3334;DHT22;1679;50.392;8.008;2024-02-15T01:31:51;10.00;99.90
3334;DHT22;1679;50.392;8.008;2024-02-15T01:34:16;10.10;99.90
3334;DHT22;1679;50.392;8.008;2024-02-15T01:36:42;10.10;99.90
3334;DHT22;1679;50.392;8.008;2024-02-15T01:39:07;10.00;99.90
3334;DHT22;1679;50.392;8.008;2024-02-15T01:41:33;10.00;99.90
3334;DHT22;1679;50.392;8.008;2024-02-15T01:43:58;10.10;99.90
3334;DHT22;1679;50.392;8.008;2024-02-15T01:46:24;10.10;99.90
3334;DHT22;1679;50.392;8.008;2024-02-15T01:48:50;10.10;99.90
3334;DHT22;1679;50.392;8.008;2024-02-15T01:51:16;10.00;99.90
3334;DHT22;1679;50.392;8.008;2024-02-15T01:53:43;10.00;99.90
3334;DHT22;1679;50.392;8.008;2024-02-15T01:56:12;9.90;99.90
3334;DHT22;1679;50.392;8.008;2024-02-15T01:58:40;9.90;99.90
3334;DHT22;1679;50.392;8.008;2024-02-15T02:01:06;9.90;99.90
3334;DHT22;1679;50.392;8.008;2024-02-15T02:03:32;9.90;99.90
3334;DHT22;1679;50.392;8.008;2024-02-15T02:05:57;10.00;99.90
3334;DHT22;1679;50.392;8.008;2024-02-15T02:08:25;10.00;99.90
3334;DHT22;1679;50.392;8.008;2024-02-15T02:10:51;9.90;99.90
3334;DHT22;1679;50.392;8.008;2024-02-15T02:13:16;9.90;99.90
3334;DHT22;1679;50.392;8.008;2024-02-15T02:15:42;9.90;99.90
3334;DHT22;1679;50.392;8.008;2024-02-15T02:18:08;9.90;99.90
3334;DHT22;1679;50.392;8.008;2024-02-15T02:20:35;9.90;99.90
3334;DHT22;1679;50.392;8.008;2024-02-15T02:23:09;9.90;99.90
3334;DHT22;1679;50.392;8.008;2024-02-15T02:25:38;9.90;99.90
3334;DHT22;1679;50.392;8.008;2024-02-15T02:28:04;9.90;99.90
3334;DHT22;1679;50.392;8.008;2024-02-15T02:30:31;9.90;99.90
3334;DHT22;1679;50.392;8.008;2024-02-15T02:32:57;9.90;99.90
3334;DHT22;1679;50.392;8.008;2024-02-15T02:35:24;10.00;99.90
3334;DHT22;1679;50.392;8.008;2024-02-15T02:37:51;10.00;99.90
3334;DHT22;1679;50.392;8.008;2024-02-15T02:40:18;10.00;99.90
3334;DHT22;1679;50.392;8.008;2024-02-15T02:42:54;10.00;99.90
3334;DHT22;1679;50.392;8.008;2024-02-15T02:45:26;10.00;99.90
3334;DHT22;1679;50.392;8.008;2024-02-15T02:47:53;10.10;99.90
3334;DHT22;1679;50.392;8.008;2024-02-15T02:50:22;10.00;99.90
3334;DHT22;1679;50.392;8.008;2024-02-15T02:52:48;10.00;99.90
3334;DHT22;1679;50.392;8.008;2024-02-15T02:55:14;10.00;99.90
3334;DHT22;1679;50.392;8.008;2024-02-15T02:57:40;10.10;99.90
3334;DHT22;1679;50.392;8.008;2024-02-15T03:00:11;10.10;99.90
3334;DHT22;1679;50.392;8.008;2024-02-15T03:02:39;10.10;99.90
3334;DHT22;1679;50.392;8.008;2024-02-15T03:05:05;10.10;99.90
3334;DHT22;1679;50.392;8.008;2024-02-15T03:07:35;10.10;99.90
3334;DHT22;1679;50.392;8.008;2024-02-15T03:10:04;10.10;99.90
3334;DHT22;1679;50.392;8.008;2024-02-15T03:12:36;10.10;99.90
3334;DHT22;1679;50.392;8.008;2024-02-15T03:15:03;10.00;99.90
3334;DHT22;1679;50.392;8.008;2024-02-15T03:17:29;10.00;99.90
3334;DHT22;1679;50.392;8.008;2024-02-15T03:19:59;10.10;99.90
3334;DHT22;1679;50.392;8.008;2024-02-15T03:22:28;10.10;99.90
3334;DHT22;1679;50.392;8.008;2024-02-15T03:24:54;10.10;99.90
3334;DHT22;1679;50.392;8.008;2024-02-15T03:27:20;10.00;99.90
3334;DHT22;1679;50.392;8.008;2024-02-15T03:29:48;10.00;99.90
3334;DHT22;1679;50.392;8.008;2024-02-15T03:32:14;10.00;99.90
3334;DHT22;1679;50.392;8.008;2024-02-15T03:34:39;10.00;99.90
3334;DHT22;1679;50.392;8.008;2024-02-15T03:37:05;10.00;99.90
3334;DHT22;1679;50.392;8.008;2024-02-15T03:39:30;9.90;99.90
3334;DHT22;1679;50.392;8.008;2024-02-15T03:41:56;9.90;99.90
3334;DHT22;1679;50.392;8.008;2024-02-15T03:44:23;9.90;99.90
3334;DHT22;1679;50.392;8.008;2024-02-15T03:46:51;9.90;99.90
3334;DHT22;1679;50.392;8.008;2024-02-15T03:49:18;10.00;99.90
3334;DHT22;1679;50.392;8.008;2024-02-15T03:51:43;10.00;99.90
3334;DHT22;1679;50.392;8.008;2024-02-15T03:54:10;10.00;99.90
3334;DHT22;1679;50.392;8.008;2024-02-15T03:56:36;10.00;99.90
3334;DHT22;1679;50.392;8.008;2024-02-15T03:59:02;10.00;99.90
3334;DHT22;1679;50.392;8.008;2024-02-15T04:01:30;10.00;99.90
3334;DHT22;1679;50.392;8.008;2024-02-15T04:03:59;10.00;99.90
3334;DHT22;1679;50.392;8.008;2024-02-15T04:06:25;10.10;99.90
3334;DHT22;1679;50.392;8.008;2024-02-15T04:08:53;10.10;99.90
3334;DHT22;1679;50.392;8.008;2024-02-15T04:11:18;10.20;99.90
3334;DHT22;1679;50.392;8.008;2024-02-15T04:13:45;10.20;99.90
3334;DHT22;1679;50.392;8.008;2024-02-15T04:16:10;10.20;99.90
3334;DHT22;1679;50.392;8.008;2024-02-15T04:18:36;10.20;99.90
3334;DHT22;1679;50.392;8.008;2024-02-15T04:21:03;10.20;99.90
3334;DHT22;1679;50.392;8.008;2024-02-15T04:23:31;10.10;99.90
3334;DHT22;1679;50.392;8.008;2024-02-15T04:25:57;10.10;99.90
3334;DHT22;1679;50.392;8.008;2024-02-15T04:28:23;10.10;99.90
3334;DHT22;1679;50.392;8.008;2024-02-15T04:30:48;10.10;99.90
3334;DHT22;1679;50.392;8.008;2024-02-15T04:33:14;10.00;99.90
3334;DHT22;1679;50.392;8.008;2024-02-15T04:35:41;10.00;99.90
3334;DHT22;1679;50.392;8.008;2024-02-15T04:38:06;10.00;99.90
3334;DHT22;1679;50.392;8.008;2024-02-15T04:40:34;10.00;99.90
3334;DHT22;1679;50.392;8.008;2024-02-15T04:42:59;10.00;99.90
3334;DHT22;1679;50.392;8.008;2024-02-15T04:45:27;10.00;99.90
3334;DHT22;1679;50.392;8.008;2024-02-15T04:47:52;10.00;99.90
3334;DHT22;1679;50.392;8.008;2024-02-15T04:50:19;9.90;99.90
3334;DHT22;1679;50.392;8.008;2024-02-15T04:52:46;9.80;99.90
3334;DHT22;1679;50.392;8.008;2024-02-15T04:55:15;9.80;99.90
3334;DHT22;1679;50.392;8.008;2024-02-15T04:57:41;9.70;99.90
3334;DHT22;1679;50.392;8.008;2024-02-15T05:00:07;9.70;99.90
3334;DHT22;1679;50.392;8.008;2024-02-15T05:02:38;9.60;99.90
3334;DHT22;1679;50.392;8.008;2024-02-15T05:05:07;9.60;99.90
3334;DHT22;1679;50.392;8.008;2024-02-15T05:07:34;9.60;99.90
3334;DHT22;1679;50.392;8.008;2024-02-15T05:10:00;9.60;99.90
3334;DHT22;1679;50.392;8.008;2024-02-15T05:12:27;9.60;99.90
3334;DHT22;1679;50.392;8.008;2024-02-15T05:14:53;9.60;99.90
3334;DHT22;1679;50.392;8.008;2024-02-15T05:17:19;9.60;99.90
3334;DHT22;1679;50.392;8.008;2024-02-15T05:19:44;9.60;99.90
3334;DHT22;1679;50.392;8.008;2024-02-15T05:22:10;9.70;99.90
3334;DHT22;1679;50.392;8.008;2024-02-15T05:24:36;9.80;99.90
3334;DHT22;1679;50.392;8.008;2024-02-15T05:27:04;9.80;99.90
3334;DHT22;1679;50.392;8.008;2024-02-15T05:29:29;9.90;99.90
3334;DHT22;1679;50.392;8.008;2024-02-15T05:31:59;9.80;99.90
3334;DHT22;1679;50.392;8.008;2024-02-15T05:34:25;9.80;99.90
3334;DHT22;1679;50.392;8.008;2024-02-15T05:36:50;9.70;99.90
3334;DHT22;1679;50.392;8.008;2024-02-15T05:39:17;9.70;99.90
3334;DHT22;1679;50.392;8.008;2024-02-15T05:41:45;9.70;99.90
3334;DHT22;1679;50.392;8.008;2024-02-15T05:44:11;9.70;99.90
3334;DHT22;1679;50.392;8.008;2024-02-15T05:46:36;9.70;99.90
3334;DHT22;1679;50.392;8.008;2024-02-15T05:49:03;9.70;99.90
3334;DHT22;1679;50.392;8.008;2024-02-15T05:51:30;9.70;99.90
3334;DHT22;1679;50.392;8.008;2024-02-15T05:53:56;9.70;99.90
3334;DHT22;1679;50.392;8.008;2024-02-15T05:56:24;9.70;99.90
3334;DHT22;1679;50.392;8.008;2024-02-15T05:58:51;9.70;99.90
3334;DHT22;1679;50.392;8.008;2024-02-15T06:01:19;9.70;99.90
3334;DHT22;1679;50.392;8.008;2024-02-15T06:03:45;9.70;99.90
3334;DHT22;1679;50.392;8.008;2024-02-15T06:06:13;9.70;99.90
3334;DHT22;1679;50.392;8.008;2024-02-15T06:08:39;9.60;99.90
3334;DHT22;1679;50.392;8.008;2024-02-15T06:11:04;9.60;99.90
3334;DHT22;1679;50.392;8.008;2024-02-15T06:13:34;9.60;99.90
3334;DHT22;1679;50.392;8.008;2024-02-15T06:16:00;9.60;99.90
3334;DHT22;1679;50.392;8.008;2024-02-15T06:18:27;9.60;99.90
3334;DHT22;1679;50.392;8.008;2024-02-15T06:20:57;9.60;99.90
3334;DHT22;1679;50.392;8.008;2024-02-15T06:23:24;9.60;99.90
3334;DHT22;1679;50.392;8.008;2024-02-15T06:25:52;9.60;99.90
3334;DHT22;1679;50.392;8.008;2024-02-15T06:28:24;9.60;99.90
3334;DHT22;1679;50.392;8.008;2024-02-15T06:31:09;9.70;99.90
3334;DHT22;1679;50.392;8.008;2024-02-15T06:33:54;9.70;99.90
3334;DHT22;1679;50.392;8.008;2024-02-15T06:36:46;9.80;99.90
3334;DHT22;1679;50.392;8.008;2024-02-15T06:39:31;9.80;99.90
3334;DHT22;1679;50.392;8.008;2024-02-15T06:42:14;9.70;99.90
3334;DHT22;1679;50.392;8.008;2024-02-15T06:44:45;9.80;99.90
3334;DHT22;1679;50.392;8.008;2024-02-15T06:47:12;9.70;99.90
3334;DHT22;1679;50.392;8.008;2024-02-15T06:49:41;9.70;99.90
3334;DHT22;1679;50.392;8.008;2024-02-15T06:52:10;9.60;99.90
3334;DHT22;1679;50.392;8.008;2024-02-15T06:54:38;9.60;99.90
3334;DHT22;1679;50.392;8.008;2024-02-15T06:57:03;9.50;99.90
3334;DHT22;1679;50.392;8.008;2024-02-15T06:59:30;9.40;99.90
3334;DHT22;1679;50.392;8.008;2024-02-15T07:02:03;9.40;99.90
3334;DHT22;1679;50.392;8.008;2024-02-15T07:04:33;9.40;99.90
3334;DHT22;1679;50.392;8.008;2024-02-15T07:06:58;9.30;99.90
3334;DHT22;1679;50.392;8.008;2024-02-15T07:09:25;9.30;99.90
3334;DHT22;1679;50.392;8.008;2024-02-15T07:11:51;9.30;99.90
3334;DHT22;1679;50.392;8.008;2024-02-15T07:14:16;9.40;99.90
3334;DHT22;1679;50.392;8.008;2024-02-15T07:16:46;9.50;99.90
3334;DHT22;1679;50.392;8.008;2024-02-15T07:19:12;9.50;99.90
3334;DHT22;1679;50.392;8.008;2024-02-15T07:21:38;9.60;99.90
3334;DHT22;1679;50.392;8.008;2024-02-15T07:24:04;9.70;99.90
3334;DHT22;1679;50.392;8.008;2024-02-15T07:26:30;9.70;99.90
3334;DHT22;1679;50.392;8.008;2024-02-15T07:28:56;9.80;99.90
3334;DHT22;1679;50.392;8.008;2024-02-15T07:31:26;9.90;99.90
3334;DHT22;1679;50.392;8.008;2024-02-15T07:33:52;9.90;99.90
3334;DHT22;1679;50.392;8.008;2024-02-15T07:36:22;9.90;99.90
3334;DHT22;1679;50.392;8.008;2024-02-15T07:38:48;10.00;99.90
3334;DHT22;1679;50.392;8.008;2024-02-15T07:41:17;10.10;99.90
3334;DHT22;1679;50.392;8.008;2024-02-15T07:43:45;10.20;99.90
3334;DHT22;1679;50.392;8.008;2024-02-15T07:46:12;10.30;99.90
3334;DHT22;1679;50.392;8.008;2024-02-15T07:48:39;10.30;99.90
3334;DHT22;1679;50.392;8.008;2024-02-15T07:51:05;10.30;99.90
3334;DHT22;1679;50.392;8.008;2024-02-15T07:53:35;10.30;99.90
3334;DHT22;1679;50.392;8.008;2024-02-15T07:56:00;10.30;99.90
3334;DHT22;1679;50.392;8.008;2024-02-15T07:58:26;10.40;99.90
3334;DHT22;1679;50.392;8.008;2024-02-15T08:00:51;10.40;99.90
3334;DHT22;1679;50.392;8.008;2024-02-15T08:03:17;10.40;99.90
3334;DHT22;1679;50.392;8.008;2024-02-15T08:05:42;10.50;99.90
3334;DHT22;1679;50.392;8.008;2024-02-15T08:08:08;10.60;99.90
3334;DHT22;1679;50.392;8.008;2024-02-15T08:10:33;10.60;99.90
3334;DHT22;1679;50.392;8.008;2024-02-15T08:12:59;10.60;99.90
3334;DHT22;1679;50.392;8.008;2024-02-15T08:15:24;10.60;99.90
3334;DHT22;1679;50.392;8.008;2024-02-15T08:17:53;10.70;99.90
3334;DHT22;1679;50.392;8.008;2024-02-15T08:20:20;10.80;99.90
3334;DHT22;1679;50.392;8.008;2024-02-15T08:22:49;10.90;99.90
3334;DHT22;1679;50.392;8.008;2024-02-15T08:25:14;11.00;99.90
3334;DHT22;1679;50.392;8.008;2024-02-15T08:27:48;11.00;99.90
3334;DHT22;1679;50.392;8.008;2024-02-15T08:30:17;11.00;99.90
3334;DHT22;1679;50.392;8.008;2024-02-15T08:32:43;11.00;99.90
3334;DHT22;1679;50.392;8.008;2024-02-15T08:35:12;11.00;99.90
3334;DHT22;1679;50.392;8.008;2024-02-15T08:37:38;11.00;99.90
3334;DHT22;1679;50.392;8.008;2024-02-15T08:40:05;11.00;99.90
3334;DHT22;1679;50.392;8.008;2024-02-15T08:42:39;11.00;99.90
3334;DHT22;1679;50.392;8.008;2024-02-15T08:45:05;11.00;99.90
3334;DHT22;1679;50.392;8.008;2024-02-15T08:47:37;11.10;99.90
3334;DHT22;1679;50.392;8.008;2024-02-15T08:50:03;11.10;99.90
3334;DHT22;1679;50.392;8.008;2024-02-15T08:52:30;11.10;99.90
3334;DHT22;1679;50.392;8.008;2024-02-15T08:54:55;11.00;99.90
3334;DHT22;1679;50.392;8.008;2024-02-15T08:57:23;11.00;99.90
3334;DHT22;1679;50.392;8.008;2024-02-15T08:59:48;11.00;99.90
3334;DHT22;1679;50.392;8.008;2024-02-15T09:02:16;11.10;99.90
3334;DHT22;1679;50.392;8.008;2024-02-15T09:04:43;11.00;99.90
3334;DHT22;1679;50.392;8.008;2024-02-15T09:07:08;11.00;99.90
3334;DHT22;1679;50.392;8.008;2024-02-15T09:09:34;11.00;99.90
3334;DHT22;1679;50.392;8.008;2024-02-15T09:12:02;11.00;99.90
3334;DHT22;1679;50.392;8.008;2024-02-15T09:14:34;10.90;99.90
3334;DHT22;1679;50.392;8.008;2024-02-15T09:17:00;10.90;99.90
3334;DHT22;1679;50.392;8.008;2024-02-15T09:19:25;10.90;99.90
3334;DHT22;1679;50.392;8.008;2024-02-15T09:21:51;10.90;99.90
3334;DHT22;1679;50.392;8.008;2024-02-15T09:24:16;10.90;99.90
3334;DHT22;1679;50.392;8.008;2024-02-15T09:26:42;11.00;99.90
3334;DHT22;1679;50.392;8.008;2024-02-15T09:29:09;11.10;99.90
3334;DHT22;1679;50.392;8.008;2024-02-15T09:31:35;11.20;99.90
3334;DHT22;1679;50.392;8.008;2024-02-15T09:34:01;11.40;99.90
3334;DHT22;1679;50.392;8.008;2024-02-15T09:36:34;11.50;99.90
3334;DHT22;1679;50.392;8.008;2024-02-15T09:39:03;11.70;99.90
3334;DHT22;1679;50.392;8.008;2024-02-15T09:41:28;11.80;99.90
3334;DHT22;1679;50.392;8.008;2024-02-15T09:43:54;11.90;99.90
3334;DHT22;1679;50.392;8.008;2024-02-15T09:46:20;11.90;99.90
3334;DHT22;1679;50.392;8.008;2024-02-15T09:48:50;12.00;99.90
3334;DHT22;1679;50.392;8.008;2024-02-15T09:51:18;12.00;99.90
3334;DHT22;1679;50.392;8.008;2024-02-15T09:53:46;12.10;99.90
3334;DHT22;1679;50.392;8.008;2024-02-15T09:56:13;12.00;99.90
3334;DHT22;1679;50.392;8.008;2024-02-15T09:58:39;12.00;99.90
3334;DHT22;1679;50.392;8.008;2024-02-15T10:01:05;11.90;99.90
3334;DHT22;1679;50.392;8.008;2024-02-15T10:03:37;11.90;99.90
3334;DHT22;1679;50.392;8.008;2024-02-15T10:06:03;11.80;99.90
3334;DHT22;1679;50.392;8.008;2024-02-15T10:08:29;11.80;99.90
3334;DHT22;1679;50.392;8.008;2024-02-15T10:11:08;11.80;99.90
3334;DHT22;1679;50.392;8.008;2024-02-15T10:13:34;11.80;99.90
3334;DHT22;1679;50.392;8.008;2024-02-15T10:18:39;11.90;99.90
3334;DHT22;1679;50.392;8.008;2024-02-15T10:21:04;12.00;99.90
3334;DHT22;1679;50.392;8.008;2024-02-15T10:23:30;12.10;99.90
3334;DHT22;1679;50.392;8.008;2024-02-15T10:25:55;12.10;99.90
3334;DHT22;1679;50.392;8.008;2024-02-15T10:28:23;12.30;99.90
3334;DHT22;1679;50.392;8.008;2024-02-15T10:30:49;12.30;99.90
3334;DHT22;1679;50.392;8.008;2024-02-15T10:33:34;12.20;99.90
3334;DHT22;1679;50.392;8.008;2024-02-15T10:36:10;12.20;99.90
3334;DHT22;1679;50.392;8.008;2024-02-15T10:38:39;12.20;99.90
3334;DHT22;1679;50.392;8.008;2024-02-15T10:41:06;12.20;99.90
3334;DHT22;1679;50.392;8.008;2024-02-15T10:43:36;12.40;99.90
3334;DHT22;1679;50.392;8.008;2024-02-15T10:46:05;12.60;99.90
3334;DHT22;1679;50.392;8.008;2024-02-15T10:48:33;12.80;99.90
3334;DHT22;1679;50.392;8.008;2024-02-15T10:50:59;13.00;99.90
3334;DHT22;1679;50.392;8.008;2024-02-15T10:53:30;13.00;99.90
3334;DHT22;1679;50.392;8.008;2024-02-15T10:56:09;13.10;99.90
3334;DHT22;1679;50.392;8.008;2024-02-15T10:58:47;13.10;99.90
3334;DHT22;1679;50.392;8.008;2024-02-15T11:01:17;13.20;99.90
3334;DHT22;1679;50.392;8.008;2024-02-15T11:03:58;13.20;99.90
3334;DHT22;1679;50.392;8.008;2024-02-15T11:06:27;13.20;99.90
3334;DHT22;1679;50.392;8.008;2024-02-15T11:08:54;13.30;99.90
3334;DHT22;1679;50.392;8.008;2024-02-15T11:11:20;13.30;99.90
3334;DHT22;1679;50.392;8.008;2024-02-15T11:13:47;13.20;99.90
3334;DHT22;1679;50.392;8.008;2024-02-15T11:16:41;13.30;99.90
3334;DHT22;1679;50.392;8.008;2024-02-15T11:19:06;13.40;99.90
3334;DHT22;1679;50.392;8.008;2024-02-15T11:22:08;13.60;99.90
3334;DHT22;1679;50.392;8.008;2024-02-15T11:24:36;13.70;99.90
3334;DHT22;1679;50.392;8.008;2024-02-15T11:27:03;13.80;99.90
3334;DHT22;1679;50.392;8.008;2024-02-15T11:29:51;13.90;99.90
3334;DHT22;1679;50.392;8.008;2024-02-15T11:32:43;14.00;99.90
3334;DHT22;1679;50.392;8.008;2024-02-15T11:35:20;14.10;99.90
3334;DHT22;1679;50.392;8.008;2024-02-15T11:40:17;14.20;99.90
3334;DHT22;1679;50.392;8.008;2024-02-15T11:42:44;14.20;99.90
3334;DHT22;1679;50.392;8.008;2024-02-15T11:45:10;14.20;99.90
3334;DHT22;1679;50.392;8.008;2024-02-15T11:47:40;14.30;99.90
3334;DHT22;1679;50.392;8.008;2024-02-15T11:50:14;14.40;99.90
3334;DHT22;1679;50.392;8.008;2024-02-15T11:52:46;14.50;99.90
3334;DHT22;1679;50.392;8.008;2024-02-15T11:55:17;14.50;99.90
3334;DHT22;1679;50.392;8.008;2024-02-15T11:57:59;14.50;99.90
3334;DHT22;1679;50.392;8.008;2024-02-15T12:00:31;14.50;99.90
3334;DHT22;1679;50.392;8.008;2024-02-15T12:03:16;14.50;99.90
3334;DHT22;1679;50.392;8.008;2024-02-15T12:06:01;14.60;99.90
3334;DHT22;1679;50.392;8.008;2024-02-15T12:08:51;14.60;99.90
3334;DHT22;1679;50.392;8.008;2024-02-15T12:11:35;14.70;99.90
3334;DHT22;1679;50.392;8.008;2024-02-15T12:14:20;14.70;99.90
3334;DHT22;1679;50.392;8.008;2024-02-15T12:17:07;14.70;99.90
3334;DHT22;1679;50.392;8.008;2024-02-15T12:19:53;14.70;99.90
3334;DHT22;1679;50.392;8.008;2024-02-15T12:22:23;14.70;99.90
3334;DHT22;1679;50.392;8.008;2024-02-15T12:27:20;14.80;99.90
3334;DHT22;1679;50.392;8.008;2024-02-15T12:29:53;14.90;99.90
3334;DHT22;1679;50.392;8.008;2024-02-15T12:32:23;14.90;99.90
3334;DHT22;1679;50.392;8.008;2024-02-15T12:34:49;15.00;99.90
3334;DHT22;1679;50.392;8.008;2024-02-15T12:37:18;14.90;99.90
3334;DHT22;1679;50.392;8.008;2024-02-15T12:39:44;15.00;99.90
3334;DHT22;1679;50.392;8.008;2024-02-15T12:42:09;15.00;99.90
3334;DHT22;1679;50.392;8.008;2024-02-15T12:44:36;15.00;99.90
3334;DHT22;1679;50.392;8.008;2024-02-15T12:47:01;15.00;99.90
3334;DHT22;1679;50.392;8.008;2024-02-15T12:49:29;15.00;99.90
3334;DHT22;1679;50.392;8.008;2024-02-15T12:55:10;15.20;99.90
3334;DHT22;1679;50.392;8.008;2024-02-15T12:57:35;15.20;99.90
3334;DHT22;1679;50.392;8.008;2024-02-15T13:00:01;15.30;99.90
3334;DHT22;1679;50.392;8.008;2024-02-15T13:02:36;15.30;99.90
3334;DHT22;1679;50.392;8.008;2024-02-15T13:05:04;15.20;99.90
3334;DHT22;1679;50.392;8.008;2024-02-15T13:07:30;15.20;99.90
3334;DHT22;1679;50.392;8.008;2024-02-15T13:09:56;15.20;99.90
3334;DHT22;1679;50.392;8.008;2024-02-15T13:12:22;15.30;99.90
3334;DHT22;1679;50.392;8.008;2024-02-15T13:14:48;15.20;99.90
3334;DHT22;1679;50.392;8.008;2024-02-15T13:17:15;15.20;99.90
3334;DHT22;1679;50.392;8.008;2024-02-15T13:19:46;15.30;99.90
3334;DHT22;1679;50.392;8.008;2024-02-15T13:22:14;15.20;99.90
3334;DHT22;1679;50.392;8.008;2024-02-15T13:24:41;15.30;99.90
3334;DHT22;1679;50.392;8.008;2024-02-15T13:27:07;15.30;99.90
3334;DHT22;1679;50.392;8.008;2024-02-15T13:29:35;15.20;99.90
3334;DHT22;1679;50.392;8.008;2024-02-15T13:32:01;15.20;99.90
3334;DHT22;1679;50.392;8.008;2024-02-15T13:34:26;15.00;99.90
3334;DHT22;1679;50.392;8.008;2024-02-15T13:36:52;15.10;99.90
3334;DHT22;1679;50.392;8.008;2024-02-15T13:39:20;15.10;99.90
3334;DHT22;1679;50.392;8.008;2024-02-15T13:41:47;15.10;99.90
3334;DHT22;1679;50.392;8.008;2024-02-15T13:44:12;15.10;99.90
3334;DHT22;1679;50.392;8.008;2024-02-15T13:46:40;15.10;99.90
3334;DHT22;1679;50.392;8.008;2024-02-15T13:49:05;14.90;99.90
3334;DHT22;1679;50.392;8.008;2024-02-15T13:51:31;14.90;99.90
3334;DHT22;1679;50.392;8.008;2024-02-15T13:53:56;14.80;99.90
3334;DHT22;1679;50.392;8.008;2024-02-15T13:56:22;14.60;99.90
3334;DHT22;1679;50.392;8.008;2024-02-15T13:58:47;14.50;99.90
3334;DHT22;1679;50.392;8.008;2024-02-15T14:01:13;14.50;99.90
3334;DHT22;1679;50.392;8.008;2024-02-15T14:03:40;14.40;99.90
3334;DHT22;1679;50.392;8.008;2024-02-15T14:06:06;14.50;99.90
3334;DHT22;1679;50.392;8.008;2024-02-15T14:08:32;14.50;99.90
3334;DHT22;1679;50.392;8.008;2024-02-15T14:10:58;14.40;99.90
3334;DHT22;1679;50.392;8.008;2024-02-15T14:13:23;14.30;99.90
3334;DHT22;1679;50.392;8.008;2024-02-15T14:15:50;14.30;99.90
3334;DHT22;1679;50.392;8.008;2024-02-15T14:18:16;14.10;99.90
3334;DHT22;1679;50.392;8.008;2024-02-15T14:20:45;14.00;99.90
3334;DHT22;1679;50.392;8.008;2024-02-15T14:23:14;13.90;99.90
3334;DHT22;1679;50.392;8.008;2024-02-15T14:25:39;13.80;99.90
3334;DHT22;1679;50.392;8.008;2024-02-15T14:28:05;13.70;99.90
3334;DHT22;1679;50.392;8.008;2024-02-15T14:30:35;13.70;99.90
3334;DHT22;1679;50.392;8.008;2024-02-15T14:33:18;13.70;99.90
3334;DHT22;1679;50.392;8.008;2024-02-15T14:35:45;13.60;99.90
3334;DHT22;1679;50.392;8.008;2024-02-15T14:38:12;13.60;99.90
3334;DHT22;1679;50.392;8.008;2024-02-15T14:40:45;13.50;99.90
3334;DHT22;1679;50.392;8.008;2024-02-15T14:43:16;13.50;99.90
3334;DHT22;1679;50.392;8.008;2024-02-15T14:45:42;13.50;99.90
3334;DHT22;1679;50.392;8.008;2024-02-15T14:48:08;13.50;99.90
3334;DHT22;1679;50.392;8.008;2024-02-15T14:50:35;13.40;99.90
3334;DHT22;1679;50.392;8.008;2024-02-15T14:53:01;13.40;99.90
3334;DHT22;1679;50.392;8.008;2024-02-15T14:55:27;13.30;99.90
3334;DHT22;1679;50.392;8.008;2024-02-15T14:57:54;13.30;99.90
3334;DHT22;1679;50.392;8.008;2024-02-15T15:00:20;13.30;99.90
3334;DHT22;1679;50.392;8.008;2024-02-15T15:02:48;13.20;99.90
3334;DHT22;1679;50.392;8.008;2024-02-15T15:05:14;13.20;99.90
3334;DHT22;1679;50.392;8.008;2024-02-15T15:07:58;13.20;99.90
3334;DHT22;1679;50.392;8.008;2024-02-15T15:10:45;13.10;99.90
3334;DHT22;1679;50.392;8.008;2024-02-15T15:13:30;13.10;99.90
3334;DHT22;1679;50.392;8.008;2024-02-15T15:15:56;13.10;99.90
3334;DHT22;1679;50.392;8.008;2024-02-15T15:18:22;13.00;99.90
3334;DHT22;1679;50.392;8.008;2024-02-15T15:20:48;13.00;99.90
3334;DHT22;1679;50.392;8.008;2024-02-15T15:23:13;13.00;99.90
3334;DHT22;1679;50.392;8.008;2024-02-15T15:25:41;12.90;99.90
3334;DHT22;1679;50.392;8.008;2024-02-15T15:28:07;12.90;99.90
3334;DHT22;1679;50.392;8.008;2024-02-15T15:30:32;12.80;99.90
3334;DHT22;1679;50.392;8.008;2024-02-15T15:32:58;12.90;99.90
3334;DHT22;1679;50.392;8.008;2024-02-15T15:35:26;12.90;99.90
3334;DHT22;1679;50.392;8.008;2024-02-15T15:37:52;12.80;99.90
3334;DHT22;1679;50.392;8.008;2024-02-15T15:40:18;12.80;99.90
3334;DHT22;1679;50.392;8.008;2024-02-15T15:42:44;12.80;99.90
3334;DHT22;1679;50.392;8.008;2024-02-15T15:45:09;12.70;99.90
3334;DHT22;1679;50.392;8.008;2024-02-15T15:47:36;12.70;99.90
3334;DHT22;1679;50.392;8.008;2024-02-15T15:50:02;12.70;99.90
3334;DHT22;1679;50.392;8.008;2024-02-15T15:52:34;12.70;99.90
3334;DHT22;1679;50.392;8.008;2024-02-15T15:55:00;12.60;99.90
3334;DHT22;1679;50.392;8.008;2024-02-15T15:57:26;12.60;99.90
3334;DHT22;1679;50.392;8.008;2024-02-15T15:59:51;12.60;99.90
3334;DHT22;1679;50.392;8.008;2024-02-15T16:02:17;12.60;99.90
3334;DHT22;1679;50.392;8.008;2024-02-15T16:04:45;12.60;99.90
3334;DHT22;1679;50.392;8.008;2024-02-15T16:07:14;12.50;99.90
3334;DHT22;1679;50.392;8.008;2024-02-15T16:09:41;12.50;99.90
3334;DHT22;1679;50.392;8.008;2024-02-15T16:12:10;12.50;99.90
3334;DHT22;1679;50.392;8.008;2024-02-15T16:14:36;12.50;99.90
3334;DHT22;1679;50.392;8.008;2024-02-15T16:17:05;12.50;99.90
3334;DHT22;1679;50.392;8.008;2024-02-15T16:19:30;12.40;99.90
3334;DHT22;1679;50.392;8.008;2024-02-15T16:21:56;12.40;99.90